Time;durP1;ratioP1;P1;durP2;ratioP2;P2;SDS_P1;SDS_P2;PMS_P1;PMS_P2;Temp;Humidity;BMP_temperature;BMP_pressure;BME280_temperature;BME280_humidity;BME280_pressure;Samples;Min_cycle;Max_cycle;Signal;HPM_P1;HPM_P2
2023/07/23 00:01:30;;;;;;;3.42;2.03;;;;;;;22.02;55.24;99924.97;4501157;31;34342;-85
2023/07/23 00:03:58;;;;;;;0.30;0.30;;;;;;;21.91;55.45;99923.22;4501165;31;33930;-85
2023/07/23 00:06:26;;;;;;;0.10;0.10;;;;;;;21.90;55.35;99931.44;4475004;31;32438;-85
2023/07/23 00:08:53;;;;;;;0.10;0.10;;;;;;;21.83;55.53;99925.75;4500967;31;33201;-85
2023/07/23 00:11:21;;;;;;;1.50;0.20;;;;;;;21.83;55.70;99924.91;4487945;31;31873;-85
2023/07/23 00:13:49;;;;;;;0.65;0.37;;;;;;;21.94;55.37;99922.13;4482717;31;32497;-86
2023/07/23 00:16:16;;;;;;;0.93;0.57;;;;;;;21.87;55.72;99923.63;4488490;31;33962;-86
2023/07/23 00:18:44;;;;;;;2.45;1.17;;;;;;;21.87;55.75;99931.72;4478922;31;33900;-86
2023/07/23 00:21:12;;;;;;;0.20;0.20;;;;;;;21.78;55.78;99932.53;4490684;31;33372;-86
2023/07/23 00:23:39;;;;;;;0.30;0.30;;;;;;;21.60;56.27;99935.84;4477899;31;33798;-86
2023/07/23 00:26:07;;;;;;;0.10;0.10;;;;;;;21.75;55.81;99939.03;4480177;31;32971;-86
2023/07/23 00:28:34;;;;;;;0.30;0.30;;;;;;;21.71;55.81;99940.28;4466023;31;32062;-86
2023/07/23 00:31:03;;;;;;;0.10;0.10;;;;;;;21.66;55.96;99940.69;4493806;31;33280;-87
2023/07/23 00:33:31;;;;;;;0.10;0.10;;;;;;;21.67;55.96;99941.53;4479623;31;34647;-87
2023/07/23 00:36:00;;;;;;;1.00;0.47;;;;;;;21.66;55.82;99932.63;4475206;31;33928;-85
2023/07/23 00:38:28;;;;;;;0.57;0.40;;;;;;;21.59;55.89;99939.50;4494721;31;33430;-85
2023/07/23 00:40:56;;;;;;;0.40;0.30;;;;;;;21.63;55.83;99940.94;4478920;31;33408;-85
2023/07/23 00:43:24;;;;;;;0.88;0.43;;;;;;;21.71;55.27;99938.44;4479562;31;33190;-85
2023/07/23 00:45:51;;;;;;;0.20;0.10;;;;;;;21.69;55.01;99935.03;4476194;31;33552;-85
2023/07/23 00:48:19;;;;;;;0.22;0.22;;;;;;;21.64;55.11;99936.41;4481547;31;34974;-85
2023/07/23 00:50:47;;;;;;;0.10;0.10;;;;;;;21.62;55.30;99933.88;4491633;31;33499;-85
2023/07/23 00:53:15;;;;;;;0.50;0.13;;;;;;;21.54;55.17;99936.38;4478066;31;33850;-85
2023/07/23 00:55:43;;;;;;;0.10;0.10;;;;;;;21.56;55.47;99923.69;4487879;31;33853;-85
2023/07/23 00:58:10;;;;;;;0.13;0.13;;;;;;;21.56;55.65;99926.34;4482309;31;33649;-85
2023/07/23 01:00:38;;;;;;;1.35;0.70;;;;;;;21.40;55.80;99934.88;4489588;31;34022;-85
2023/07/23 01:03:06;;;;;;;1.02;0.20;;;;;;;21.52;55.40;99938.34;4490813;31;33998;-85
2023/07/23 01:05:33;;;;;;;0.10;0.10;;;;;;;21.67;54.92;99937.00;4471773;32;32641;-87
2023/07/23 01:08:02;;;;;;;0.20;0.20;;;;;;;21.60;55.21;99941.22;4479091;31;32013;-87
2023/07/23 01:10:32;;;;;;;0.40;0.40;;;;;;;21.50;55.42;99945.69;4500495;31;33021;-87
2023/07/23 01:12:59;;;;;;;0.05;0.05;;;;;;;21.80;54.74;99935.94;4480403;31;33288;-85
2023/07/23 01:15:27;;;;;;;0.05;0.05;;;;;;;21.35;56.06;99947.00;4477571;31;33016;-85
2023/07/23 01:17:57;;;;;;;0.80;0.55;;;;;;;21.40;56.04;99944.78;4470991;32;34776;-85
2023/07/23 01:20:25;;;;;;;0.40;0.40;;;;;;;21.39;56.05;99941.25;4482143;31;33353;-85
2023/07/23 01:22:52;;;;;;;0.43;0.43;;;;;;;21.38;55.95;99941.38;4479982;31;34561;-86
2023/07/23 01:25:20;;;;;;;0.20;0.20;;;;;;;21.36;56.07;99948.72;4492141;31;34085;-86
2023/07/23 01:27:48;;;;;;;0.82;0.45;;;;;;;21.35;56.07;99947.84;4489304;31;33793;-86
2023/07/23 01:30:15;;;;;;;0.30;0.30;;;;;;;21.32;56.23;99941.94;4492122;31;34076;-85
2023/07/23 01:32:43;;;;;;;0.20;0.20;;;;;;;21.36;56.03;99949.56;4495698;31;33803;-85
2023/07/23 01:35:14;;;;;;;0.28;0.28;;;;;;;21.64;55.34;99947.16;4475472;31;33438;-85
2023/07/23 01:37:43;;;;;;;0.37;0.37;;;;;;;21.41;56.15;99947.34;4483102;31;34485;-85
2023/07/23 01:40:11;;;;;;;0.08;0.08;;;;;;;21.29;56.59;99955.56;4481397;31;31996;-85
2023/07/23 01:42:38;;;;;;;0.30;0.20;;;;;;;21.09;56.99;99952.75;4481204;31;33277;-86
2023/07/23 01:45:06;;;;;;;0.43;0.37;;;;;;;21.16;56.63;99945.88;4480094;32;33585;-86
2023/07/23 01:47:34;;;;;;;0.77;0.77;;;;;;;21.21;56.63;99948.16;4489772;31;34554;-86
2023/07/23 01:50:02;;;;;;;0.73;0.45;;;;;;;21.53;55.81;99949.94;4482385;31;34172;-86
2023/07/23 01:52:30;;;;;;;0.30;0.30;;;;;;;21.61;55.39;99942.09;4471931;31;33834;-88
2023/07/23 01:54:58;;;;;;;0.20;0.20;;;;;;;21.33;56.39;99949.84;4489614;31;33894;-86
2023/07/23 01:57:25;;;;;;;0.22;0.22;;;;;;;21.29;56.82;99942.16;4471161;32;33947;-85
2023/07/23 01:59:53;;;;;;;0.20;0.03;;;;;;;21.21;57.16;99946.31;4484218;32;31904;-86
2023/07/23 02:02:21;;;;;;;1.35;0.75;;;;;;;21.23;56.82;99948.91;4471222;32;33928;-86
2023/07/23 02:04:49;;;;;;;0.10;0.10;;;;;;;21.26;56.75;99948.63;4485567;31;33931;-87
2023/07/23 02:07:17;;;;;;;0.43;0.43;;;;;;;21.29;56.70;99942.16;4466753;31;33297;-87
2023/07/23 02:09:48;;;;;;;0.37;0.25;;;;;;;21.28;56.74;99951.19;4489277;31;33059;-86
2023/07/23 02:12:17;;;;;;;0.37;0.37;;;;;;;21.51;55.84;99950.09;4484445;31;33927;-85
2023/07/23 02:14:44;;;;;;;0.22;0.22;;;;;;;21.12;57.25;99952.47;4475805;32;34713;-84
2023/07/23 02:17:12;;;;;;;0.20;0.20;;;;;;;21.13;57.23;99954.22;4488291;31;33910;-86
2023/07/23 02:22:57;;;;;;;0.17;0.17;;;;;;;20.95;57.63;99958.44;4485159;31;32534;-87
2023/07/23 02:25:26;;;;;;;0.88;0.85;;;;;;;20.93;57.60;99957.72;4486634;31;34765;-87
2023/07/23 02:27:53;;;;;;;0.57;0.40;;;;;;;21.08;57.03;99960.94;4473416;31;33508;-86
2023/07/23 02:30:21;;;;;;;0.40;0.40;;;;;;;21.17;56.83;99961.03;4475100;31;33922;-88
2023/07/23 02:32:48;;;;;;;0.37;0.37;;;;;;;20.83;58.03;99973.72;4462710;32;32169;-87
2023/07/23 02:35:16;;;;;;;0.45;0.43;;;;;;;20.90;57.93;99958.84;4494769;31;34723;-87
2023/07/23 02:37:44;;;;;;;0.15;0.15;;;;;;;20.91;58.01;99960.53;4468017;32;33970;-87
2023/07/23 02:40:12;;;;;;;0.17;0.17;;;;;;;20.86;58.09;99975.31;4472194;32;33305;-86
2023/07/23 02:42:39;;;;;;;0.52;0.40;;;;;;;20.83;58.23;99975.56;4472679;31;33942;-87
2023/07/23 02:45:07;;;;;;;0.22;0.20;;;;;;;20.83;58.23;99967.50;4481548;31;33921;-87
2023/07/23 02:47:35;;;;;;;0.10;0.10;;;;;;;20.84;58.24;99963.84;4486408;31;33388;-87
2023/07/23 02:50:03;;;;;;;0.88;0.88;;;;;;;20.79;58.56;99969.59;4459902;32;31668;-88
2023/07/23 02:52:30;;;;;;;0.55;0.37;;;;;;;20.79;58.70;99966.06;4473040;32;34591;-87
2023/07/23 02:54:58;;;;;;;0.20;0.20;;;;;;;20.80;58.52;99974.00;4482392;31;33950;-87
2023/07/23 02:57:26;;;;;;;0.30;0.30;;;;;;;20.83;58.33;99980.94;4486126;31;33283;-86
2023/07/23 02:59:54;;;;;;;0.03;0.03;;;;;;;20.78;58.56;99977.78;4476755;31;34158;-86
2023/07/23 03:02:22;;;;;;;0.45;0.35;;;;;;;20.75;58.65;99972.66;4476168;31;33891;-86
2023/07/23 03:04:50;;;;;;;0.00;0.00;;;;;;;20.88;58.09;99970.66;4492029;31;34470;-86
2023/07/23 03:07:17;;;;;;;0.52;0.40;;;;;;;20.85;58.19;99971.78;4488600;31;32276;-86
2023/07/23 03:09:46;;;;;;;0.55;0.55;;;;;;;20.81;58.21;99958.75;4462316;31;32433;-86
2023/07/23 03:12:14;;;;;;;0.57;0.57;;;;;;;20.59;59.20;99965.91;4490122;31;34219;-86
2023/07/23 03:14:42;;;;;;;1.87;0.37;;;;;;;20.51;59.62;99971.06;4465156;31;32498;-86
2023/07/23 03:17:10;;;;;;;0.40;0.35;;;;;;;20.53;59.59;99965.56;4489641;31;33729;-86
2023/07/23 03:19:37;;;;;;;0.60;0.60;;;;;;;20.50;59.58;99966.66;4463939;31;33310;-85
2023/07/23 03:22:05;;;;;;;0.75;0.75;;;;;;;20.65;58.81;99962.72;4479799;31;32936;-86
2023/07/23 03:24:34;;;;;;;0.10;0.10;;;;;;;20.56;59.20;99966.16;4492631;31;33953;-86
2023/07/23 03:27:02;;;;;;;0.45;0.40;;;;;;;20.52;59.50;99970.06;4489802;31;32732;-86
2023/07/23 03:29:29;;;;;;;0.43;0.43;;;;;;;20.52;59.58;99969.22;4487593;31;33060;-85
2023/07/23 03:31:57;;;;;;;2.08;0.57;;;;;;;20.47;59.74;99972.28;4478644;31;33669;-85
2023/07/23 03:34:25;;;;;;;0.43;0.43;;;;;;;20.45;59.65;99968.81;4479846;31;32608;-84
2023/07/23 03:36:52;;;;;;;0.30;0.20;;;;;;;20.48;59.70;99973.97;4482936;31;33248;-84
2023/07/23 03:39:20;;;;;;;0.75;0.75;;;;;;;20.54;59.43;99967.25;4483347;31;32336;-84
2023/07/23 03:41:48;;;;;;;0.20;0.20;;;;;;;20.45;59.61;99968.81;4489731;31;34870;-84
2023/07/23 03:44:15;;;;;;;0.10;0.10;;;;;;;20.36;60.03;99969.59;4485361;32;34778;-84
2023/07/23 03:46:45;;;;;;;0.37;0.35;;;;;;;20.34;60.18;99977.75;4477349;31;34505;-84
2023/07/23 03:49:13;;;;;;;0.28;0.28;;;;;;;20.49;60.05;99959.59;4478223;31;34281;-85
2023/07/23 03:51:41;;;;;;;0.10;0.10;;;;;;;20.52;59.66;99959.34;4479401;31;34787;-85
2023/07/23 03:54:09;;;;;;;0.68;0.68;;;;;;;20.44;60.13;99972.50;4465977;31;34505;-85
2023/07/23 03:56:36;;;;;;;0.37;0.37;;;;;;;20.46;60.24;99966.03;4491680;31;33579;-85
2023/07/23 03:59:04;;;;;;;0.98;0.77;;;;;;;20.46;60.52;99967.84;4476626;31;34149;-85
2023/07/23 04:01:32;;;;;;;0.57;0.57;;;;;;;20.56;60.38;99966.16;4465941;32;32930;-84
2023/07/23 04:04:00;;;;;;;0.88;0.85;;;;;;;20.71;59.80;99964.88;4477246;31;32905;-84
2023/07/23 04:06:28;;;;;;;0.32;0.32;;;;;;;20.80;59.50;99962.44;4463979;31;32675;-84
2023/07/23 04:08:55;;;;;;;0.47;0.30;;;;;;;20.79;59.72;99958.00;4478163;32;32047;-84
2023/07/23 04:11:23;;;;;;;0.30;0.28;;;;;;;20.87;59.87;99966.28;4496377;31;32431;-84
2023/07/23 04:13:50;;;;;;;0.28;0.20;;;;;;;20.85;59.86;99965.56;4472684;32;32999;-85
2023/07/23 04:16:18;;;;;;;3.08;0.50;;;;;;;21.02;59.29;99962.31;4486578;31;34228;-84
2023/07/23 04:18:52;;;;;;;0.40;0.40;;;;;;;21.00;59.42;99966.97;4472594;32;32231;-85
2023/07/23 04:21:21;;;;;;;0.52;0.43;;;;;;;20.97;59.73;99954.63;4475029;32;33400;-85
2023/07/23 04:23:51;;;;;;;0.32;0.28;;;;;;;21.17;59.32;99961.03;4478320;31;32733;-85
2023/07/23 04:26:21;;;;;;;0.40;0.40;;;;;;;21.38;58.94;99968.25;4487026;31;33980;-85
2023/07/23 04:28:49;;;;;;;0.32;0.32;;;;;;;21.28;59.39;99970.84;4479750;31;34063;-85
2023/07/23 04:31:17;;;;;;;0.30;0.20;;;;;;;21.63;58.41;99966.97;4469213;32;33655;-86
2023/07/23 04:33:45;;;;;;;1.10;0.98;;;;;;;21.69;58.09;99964.59;4464754;31;33076;-86
2023/07/23 04:36:14;;;;;;;0.65;0.40;;;;;;;21.78;57.21;99964.78;4493361;31;33816;-85
2023/07/23 04:38:42;;;;;;;1.10;0.70;;;;;;;21.77;57.78;99971.13;4491785;31;33594;-86
2023/07/23 04:41:10;;;;;;;1.08;0.55;;;;;;;22.04;56.10;99968.72;4479850;31;32454;-85
2023/07/23 04:43:40;;;;;;;0.35;0.35;;;;;;;22.08;55.13;99963.91;4478426;31;33766;-86
2023/07/23 04:46:07;;;;;;;0.00;0.00;;;;;;;22.21;54.44;99962.69;4478234;31;33883;-86
2023/07/23 04:48:36;;;;;;;0.22;0.15;;;;;;;22.34;54.29;99972.34;4476057;31;33716;-85
2023/07/23 04:51:06;;;;;;;0.45;0.37;;;;;;;22.39;54.35;99968.25;4478196;31;33999;-85
2023/07/23 04:53:34;;;;;;;1.10;0.45;;;;;;;22.50;54.35;99972.66;4478901;31;34358;-85
2023/07/23 04:56:04;;;;;;;0.10;0.10;;;;;;;22.85;53.25;99966.75;4490750;31;34101;-85
2023/07/23 04:58:32;;;;;;;1.10;0.62;;;;;;;22.71;53.11;99970.72;4477425;31;34220;-85
2023/07/23 05:01:07;;;;;;;0.05;0.00;;;;;;;22.80;53.21;99973.56;4477625;31;33538;-85
2023/07/23 05:03:34;;;;;;;1.33;1.12;;;;;;;23.03;53.30;99976.88;4489761;31;34453;-85
2023/07/23 05:06:04;;;;;;;0.57;0.57;;;;;;;23.11;53.04;99974.28;4487262;31;33801;-86
2023/07/23 05:08:32;;;;;;;6.05;0.40;;;;;;;23.40;52.16;99976.94;4476595;31;34246;-85
2023/07/23 05:11:02;;;;;;;0.52;0.25;;;;;;;23.42;51.80;99980.34;4474400;31;33247;-85
2023/07/23 05:13:31;;;;;;;1.67;0.90;;;;;;;23.66;52.37;99983.44;4484849;32;33637;-86
2023/07/23 05:16:00;;;;;;;0.40;0.40;;;;;;;23.81;52.28;99985.66;4494059;31;33973;-86
2023/07/23 05:18:27;;;;;;;0.68;0.68;;;;;;;23.84;51.62;99982.69;4487639;31;33408;-86
2023/07/23 05:20:55;;;;;;;1.50;0.93;;;;;;;23.98;51.73;99993.84;4488685;31;34509;-85
2023/07/23 05:23:23;;;;;;;1.37;0.60;;;;;;;24.11;50.64;99982.69;4488593;31;33766;-86
2023/07/23 05:25:50;;;;;;;0.00;0.00;;;;;;;24.13;49.84;99983.41;4476706;31;33919;-85
2023/07/23 05:28:18;;;;;;;0.10;0.10;;;;;;;24.12;49.75;99989.81;4473994;31;96027;-86
2023/07/23 05:30:45;;;;;;;1.90;0.98;;;;;;;24.36;49.47;99999.19;4490499;31;32446;-85
2023/07/23 05:33:13;;;;;;;0.20;0.20;;;;;;;24.25;49.06;100001.06;4477789;31;32733;-86
2023/07/23 05:35:41;;;;;;;0.43;0.43;;;;;;;24.41;49.08;100002.31;4464615;31;32877;-85
2023/07/23 05:38:08;;;;;;;0.30;0.30;;;;;;;24.69;49.24;99998.59;4478602;31;31823;-86
2023/07/23 05:40:36;;;;;;;1.15;0.62;;;;;;;24.95;47.80;100003.22;4489035;31;33544;-85
2023/07/23 05:43:12;;;;;;;1.75;1.20;;;;;;;25.08;48.41;100001.00;4470164;31;33407;-85
2023/07/23 05:45:40;;;;;;;1.35;0.47;;;;;;;24.95;49.63;99998.66;4480546;31;33049;-85
2023/07/23 05:48:07;;;;;;;4.82;1.87;;;;;;;24.91;49.65;99996.41;4482504;31;33562;-85
2023/07/23 05:50:35;;;;;;;1.55;1.25;;;;;;;25.06;48.92;99999.41;4489470;31;34013;-86
2023/07/23 05:53:03;;;;;;;0.30;0.30;;;;;;;24.95;50.21;100000.50;4489768;31;34643;-86
2023/07/23 05:55:30;;;;;;;0.20;0.20;;;;;;;25.21;49.18;99998.78;4480347;31;32633;-85
2023/07/23 05:57:58;;;;;;;1.17;0.88;;;;;;;25.43;47.97;99997.41;4494112;31;33425;-85
2023/07/23 06:00:26;;;;;;;0.95;0.60;;;;;;;25.24;47.81;100001.12;4493016;31;32678;-86
2023/07/23 06:02:55;;;;;;;0.43;0.43;;;;;;;25.48;47.32;100005.03;4476745;31;32572;-86
2023/07/23 06:05:22;;;;;;;0.22;0.22;;;;;;;25.43;49.09;100001.97;4484321;31;33540;-86
2023/07/23 06:07:50;;;;;;;0.40;0.40;;;;;;;25.48;48.20;100010.44;4463930;31;32869;-86
2023/07/23 06:10:18;;;;;;;0.62;0.57;;;;;;;25.68;47.66;100005.69;4484117;31;32416;-86
2023/07/23 06:12:45;;;;;;;0.50;0.40;;;;;;;25.74;47.67;100000.50;4475072;31;32847;-86
2023/07/23 06:15:13;;;;;;;0.25;0.25;;;;;;;25.80;47.50;99999.03;4466372;31;32490;-85
2023/07/23 06:17:40;;;;;;;1.00;0.80;;;;;;;25.94;47.21;100003.00;4478974;31;33462;-85
2023/07/23 06:20:08;;;;;;;0.80;0.80;;;;;;;26.19;46.98;100002.09;4481717;31;32413;-85
2023/07/23 06:22:36;;;;;;;1.55;0.88;;;;;;;25.85;47.20;100001.25;4478473;31;32532;-86
2023/07/23 06:25:04;;;;;;;0.65;0.65;;;;;;;25.88;46.85;100000.94;4495268;31;34482;-87
2023/07/23 06:27:32;;;;;;;0.85;0.85;;;;;;;26.32;45.33;100003.53;4491849;31;34048;-86
2023/07/23 06:29:59;;;;;;;0.55;0.55;;;;;;;26.25;45.86;100001.47;4494216;31;33972;-87
2023/07/23 06:32:27;;;;;;;0.77;0.43;;;;;;;26.59;46.20;100006.00;4481501;31;32638;-86
2023/07/23 06:34:55;;;;;;;0.47;0.45;;;;;;;26.19;45.69;100007.50;4479899;31;32595;-86
2023/07/23 06:37:22;;;;;;;0.22;0.22;;;;;;;26.45;45.54;100009.34;4489838;31;33323;-86
2023/07/23 06:39:50;;;;;;;0.40;0.40;;;;;;;26.63;45.29;100007.34;4491827;31;34565;-86
2023/07/23 06:42:17;;;;;;;0.10;0.10;;;;;;;26.86;46.08;100009.44;4493705;31;33599;-86
2023/07/23 06:44:46;;;;;;;0.50;0.50;;;;;;;26.99;45.84;100005.22;4489634;31;33835;-90
2023/07/23 06:47:14;;;;;;;1.35;0.68;;;;;;;26.40;45.73;100017.09;4489552;31;32167;-90
2023/07/23 06:49:41;;;;;;;11.88;0.95;;;;;;;26.89;44.97;100004.53;4476459;31;32917;-92
2023/07/23 06:52:09;;;;;;;0.62;0.62;;;;;;;26.68;44.83;100004.16;4482176;31;33854;-92
2023/07/23 06:54:40;;;;;;;0.40;0.40;;;;;;;26.78;44.59;100003.00;4478686;31;33602;-88
2023/07/23 06:57:09;;;;;;;0.40;0.40;;;;;;;26.90;44.90;100002.69;4478396;31;33744;-88
2023/07/23 06:59:37;;;;;;;1.27;0.32;;;;;;;26.94;44.84;100009.47;4489055;31;34391;-88
2023/07/23 07:02:05;;;;;;;0.55;0.55;;;;;;;27.03;45.03;100006.59;4477730;31;32769;-88
2023/07/23 07:04:32;;;;;;;2.35;1.25;;;;;;;26.79;45.53;100010.13;4474242;31;32390;-88
2023/07/23 07:07:00;;;;;;;0.20;0.20;;;;;;;27.39;45.27;100014.41;4490523;31;33175;-90
2023/07/23 07:09:28;;;;;;;0.43;0.40;;;;;;;27.52;43.18;100008.47;4466026;31;32434;-88
2023/07/23 07:11:56;;;;;;;0.85;0.57;;;;;;;27.41;42.98;100000.69;4479050;31;33495;-91
2023/07/23 07:14:24;;;;;;;0.25;0.25;;;;;;;27.33;43.39;100003.41;4469267;31;30383;-89
2023/07/23 07:16:51;;;;;;;0.47;0.40;;;;;;;27.54;42.69;99999.16;4465223;31;32381;-93
2023/07/23 07:19:19;;;;;;;1.50;0.35;;;;;;;27.37;43.71;100002.91;4466474;31;35155;-88
2023/07/23 07:21:47;;;;;;;1.77;1.67;;;;;;;27.74;42.56;100002.38;4488882;31;31945;-88
2023/07/23 07:24:15;;;;;;;1.15;0.57;;;;;;;27.78;41.74;99998.28;4475949;31;33497;-88
2023/07/23 07:26:42;;;;;;;0.80;0.50;;;;;;;27.65;41.84;100010.66;4489280;31;33492;-88
2023/07/23 07:29:10;;;;;;;3.03;0.65;;;;;;;27.94;41.25;100001.97;4476391;31;33007;-88
2023/07/23 07:31:38;;;;;;;0.32;0.32;;;;;;;27.53;42.36;99999.31;4465926;31;31842;-88
2023/07/23 07:34:05;;;;;;;0.45;0.45;;;;;;;27.55;41.47;99998.12;4480252;31;35866;-88
2023/07/23 07:36:33;;;;;;;0.35;0.35;;;;;;;27.72;40.88;99998.12;4478168;31;31878;-87
2023/07/23 07:39:01;;;;;;;0.25;0.25;;;;;;;28.27;40.11;99986.41;4478193;31;32691;-89
2023/07/23 07:41:28;;;;;;;2.28;0.30;;;;;;;28.12;39.59;99993.63;4474442;31;32601;-91
2023/07/23 07:43:57;;;;;;;1.67;0.80;;;;;;;28.19;38.72;99990.00;4481073;31;30856;-93
2023/07/23 07:46:24;;;;;;;1.75;1.48;;;;;;;28.13;38.71;99990.72;4466532;31;33161;-92
2023/07/23 07:48:59;;;;;;;0.80;0.52;;;;;;;27.92;39.03;99990.47;4468304;31;33956;-92
2023/07/23 07:51:27;;;;;;;0.43;0.40;;;;;;;28.52;38.41;99996.16;4464672;31;32674;-92
2023/07/23 07:53:55;;;;;;;1.77;0.80;;;;;;;28.59;38.36;99996.31;4465676;31;33813;-92
2023/07/23 07:56:23;;;;;;;0.22;0.22;;;;;;;28.63;37.70;99997.66;4477578;31;33472;-93
2023/07/23 07:58:51;;;;;;;0.90;0.62;;;;;;;28.84;37.19;99992.41;4466185;31;33891;-92
2023/07/23 08:01:19;;;;;;;1.02;0.93;;;;;;;28.72;37.86;99995.69;4477546;31;34701;-92
2023/07/23 08:03:48;;;;;;;0.28;0.28;;;;;;;29.21;37.57;99990.78;4473778;31;33861;-92
2023/07/23 08:06:16;;;;;;;1.25;0.93;;;;;;;28.60;37.09;99991.72;4487313;31;34219;-92
2023/07/23 08:08:44;;;;;;;0.47;0.47;;;;;;;29.02;37.25;99981.25;4465507;31;33672;-92
2023/07/23 08:11:12;;;;;;;0.98;0.85;;;;;;;29.25;36.35;99980.41;4461834;31;33094;-92
2023/07/23 08:13:40;;;;;;;1.20;0.93;;;;;;;29.37;36.32;99976.19;4466993;31;33969;-93
2023/07/23 08:16:08;;;;;;;0.55;0.55;;;;;;;29.60;36.36;99978.91;4477142;31;30519;-92
2023/07/23 08:18:37;;;;;;;1.30;0.55;;;;;;;29.70;35.61;99974.03;4474279;31;32401;-92
2023/07/23 08:21:05;;;;;;;0.50;0.50;;;;;;;29.91;35.44;99977.87;4468505;31;32285;-92
2023/07/23 08:23:35;;;;;;;0.55;0.52;;;;;;;30.46;35.72;99976.53;4476415;31;32933;-92
2023/07/23 08:26:05;;;;;;;0.30;0.30;;;;;;;30.58;36.17;99970.41;4488727;31;32958;-92
2023/07/23 08:28:39;;;;;;;0.70;0.70;;;;;;;29.89;34.26;99977.22;4475860;31;33269;-92
2023/07/23 08:31:07;;;;;;;0.40;0.40;;;;;;;29.99;33.98;99980.50;4476911;31;31629;-93
2023/07/23 08:33:36;;;;;;;1.77;0.60;;;;;;;30.05;34.66;99972.44;4475925;31;33576;-93
2023/07/23 08:36:04;;;;;;;2.22;0.95;;;;;;;29.92;34.48;99976.88;4465918;31;32144;-93
2023/07/23 08:38:33;;;;;;;1.08;0.90;;;;;;;30.40;33.34;99971.84;4460588;31;32985;-92
2023/07/23 08:41:03;;;;;;;0.68;0.47;;;;;;;29.69;33.52;99974.22;4478306;31;32465;-93
2023/07/23 08:44:14;;;;;;;0.32;0.25;;;;;;;30.26;33.74;99968.13;4475425;31;33901;-92
2023/07/23 08:46:45;;;;;;;6.57;0.82;;;;;;;30.16;34.41;99967.59;4471260;31;32440;-92
2023/07/23 08:49:16;;;;;;;1.55;1.10;;;;;;;30.35;34.00;99972.44;4467957;31;32550;-93
2023/07/23 08:51:46;;;;;;;0.90;0.85;;;;;;;30.24;33.89;99973.78;4466161;31;33312;-92
2023/07/23 08:54:16;;;;;;;0.05;0.05;;;;;;;30.17;34.62;99981.00;4465239;31;32909;-92
2023/07/23 08:56:44;;;;;;;0.20;0.20;;;;;;;30.26;32.72;99968.97;4467791;31;32872;-94
2023/07/23 08:59:14;;;;;;;1.10;0.73;;;;;;;30.41;33.76;99974.38;4464222;31;32686;-94
2023/07/23 09:01:44;;;;;;;1.07;0.97;;;;;;;29.94;34.10;99977.50;4470018;31;32545;-94
2023/07/23 09:04:13;;;;;;;0.37;0.37;;;;;;;30.85;34.80;99968.81;4476386;31;33996;-94
2023/07/23 09:06:43;;;;;;;0.47;0.47;;;;;;;30.66;33.55;99968.56;4488184;31;32610;-93
2023/07/23 09:09:13;;;;;;;2.90;1.27;;;;;;;30.67;32.92;99971.13;4465430;31;32868;-94
2023/07/23 09:11:43;;;;;;;0.55;0.47;;;;;;;30.73;32.85;99973.09;4466007;31;33921;-92
2023/07/23 09:14:13;;;;;;;0.80;0.47;;;;;;;30.55;32.90;99980.84;4468865;31;35324;-90
2023/07/23 09:16:46;;;;;;;0.10;0.10;;;;;;;31.41;33.70;99969.97;4476033;31;32426;-91
2023/07/23 09:19:22;;;;;;;0.50;0.47;;;;;;;31.17;32.35;99977.50;4468907;31;32211;-90
2023/07/23 09:21:51;;;;;;;0.60;0.60;;;;;;;31.57;32.02;99973.25;4485201;31;34358;-91
2023/07/23 09:24:19;;;;;;;0.95;0.90;;;;;;;31.36;30.85;99978.75;4488310;31;33470;-91
2023/07/23 09:26:47;;;;;;;0.25;0.25;;;;;;;31.38;31.24;99973.94;4476729;31;33225;-92
2023/07/23 09:29:17;;;;;;;1.23;0.85;;;;;;;31.32;30.48;99977.44;4486435;31;34255;-91
2023/07/23 09:31:49;;;;;;;1.73;0.62;;;;;;;31.22;29.75;99963.28;4481122;31;33379;-92
2023/07/23 09:34:20;;;;;;;0.40;0.40;;;;;;;30.95;31.24;99971.22;4476907;31;33042;-91
2023/07/23 09:36:52;;;;;;;0.32;0.32;;;;;;;30.72;32.33;99978.75;4477689;31;34703;-91
2023/07/23 09:39:20;;;;;;;;;;;;;;;30.70;31.34;99986.22;4477867;31;33917;-90
2023/07/23 09:41:48;;;;;;;0.20;0.20;;;;;;;31.15;30.91;99978.75;4478452;31;33748;-90
2023/07/23 09:44:16;;;;;;;0.50;0.47;;;;;;;31.31;30.54;99973.03;4478479;31;32645;-91
2023/07/23 09:46:46;;;;;;;0.10;0.10;;;;;;;31.50;30.56;99975.09;4464924;31;33170;-91
2023/07/23 09:49:14;;;;;;;0.65;0.52;;;;;;;31.20;30.56;99968.09;4475516;31;33114;-90
2023/07/23 09:51:51;;;;;;;0.75;0.37;;;;;;;31.13;30.08;99973.47;4490869;31;34023;-88
2023/07/23 09:54:20;;;;;;;2.65;0.75;;;;;;;31.75;30.28;99959.06;4488971;31;33858;-91
2023/07/23 09:56:49;;;;;;;1.60;0.75;;;;;;;31.76;30.74;99968.09;4478414;31;34028;-91
2023/07/23 09:59:18;;;;;;;4.68;0.80;;;;;;;31.84;29.05;99963.37;4489401;31;33753;-90
2023/07/23 10:01:46;;;;;;;0.55;0.55;;;;;;;32.08;28.32;99963.91;4452115;31;32483;-90
2023/07/23 10:04:15;;;;;;;0.40;0.40;;;;;;;31.98;28.55;99958.81;4472976;31;32794;-90
2023/07/23 10:06:45;;;;;;;0.82;0.82;;;;;;;32.16;29.07;99960.19;4478455;31;33377;-90
2023/07/23 10:09:13;;;;;;;1.90;0.82;;;;;;;32.04;28.89;99958.00;4472133;31;34505;-90
2023/07/23 10:11:42;;;;;;;0.40;0.40;;;;;;;31.79;29.28;99964.97;4451609;31;33443;-90
2023/07/23 10:14:09;;;;;;;0.40;0.40;;;;;;;32.15;28.77;99945.69;4476065;31;34246;-91
2023/07/23 10:16:39;;;;;;;0.37;0.28;;;;;;;31.81;29.70;99951.97;4475885;31;33269;-90
2023/07/23 10:19:08;;;;;;;0.17;0.17;;;;;;;31.87;30.62;99951.22;4463985;31;33955;-90
2023/07/23 10:21:36;;;;;;;1.58;0.95;;;;;;;32.06;28.43;99944.16;4476823;31;33178;-91
2023/07/23 10:24:04;;;;;;;0.57;0.57;;;;;;;32.66;31.22;99933.44;4473833;31;33143;-91
2023/07/23 10:26:45;;;;;;;1.00;0.52;;;;;;;32.77;28.07;99930.97;4475061;31;33526;-91
2023/07/23 10:29:18;;;;;;;0.20;0.20;;;;;;;32.31;28.88;99936.28;4477786;31;33483;-89
2023/07/23 10:31:47;;;;;;;0.88;0.73;;;;;;;32.77;27.47;99928.22;4477167;31;33008;-90
2023/07/23 10:34:27;;;;;;;0.88;0.77;;;;;;;32.76;28.60;99934.75;4475107;31;33850;-90
2023/07/23 10:37:17;;;;;;;0.32;0.32;;;;;;;32.80;26.82;99925.06;4475665;31;32507;-91
2023/07/23 10:39:51;;;;;;;0.20;0.20;;;;;;;32.47;27.67;99927.72;4465609;31;33808;-91
2023/07/23 10:42:35;;;;;;;0.77;0.60;;;;;;;33.19;27.16;99919.84;4447680;31;34056;-91
2023/07/23 10:45:22;;;;;;;1.17;0.77;;;;;;;33.00;27.27;99913.34;4489857;31;32654;-91
2023/07/23 10:47:57;;;;;;;1.20;0.60;;;;;;;33.06;26.67;99907.03;4476680;31;33060;-90
2023/07/23 10:50:27;;;;;;;0.35;0.35;;;;;;;32.61;27.65;99912.19;4477251;31;33447;-92
2023/07/23 10:53:05;;;;;;;0.65;0.55;;;;;;;32.97;27.31;99914.59;4476714;31;33858;-91
2023/07/23 10:55:41;;;;;;;2.05;1.02;;;;;;;33.18;26.18;99905.31;4487781;31;33165;-89
2023/07/23 10:58:11;;;;;;;0.28;0.28;;;;;;;33.44;27.72;99909.13;4474481;31;34231;-90
2023/07/23 11:00:57;;;;;;;0.20;0.20;;;;;;;33.55;27.60;99903.00;4479162;31;33863;-90
2023/07/23 11:03:26;;;;;;;0.40;0.40;;;;;;;33.68;27.00;99889.28;4480078;31;33830;-90
2023/07/23 11:05:54;;;;;;;0.98;0.68;;;;;;;33.64;27.05;99896.22;4477706;31;34579;-91
2023/07/23 11:08:28;;;;;;;1.75;1.00;;;;;;;33.85;26.41;99895.09;4478856;31;33282;-90
2023/07/23 11:10:58;;;;;;;0.52;0.52;;;;;;;33.48;27.02;99885.75;4466399;31;33883;-90
2023/07/23 11:13:37;;;;;;;0.90;0.90;;;;;;;33.46;25.91;99888.69;4479755;31;33347;-91
2023/07/23 11:16:06;;;;;;;2.65;0.40;;;;;;;33.49;26.26;99884.69;4466333;31;32677;-90
2023/07/23 11:18:34;;;;;;;0.30;0.22;;;;;;;33.29;26.96;99890.19;4480294;31;32964;-90
2023/07/23 11:21:04;;;;;;;0.20;0.20;;;;;;;33.18;27.34;99880.69;4477081;31;33482;-91
2023/07/23 11:23:33;;;;;;;0.77;0.50;;;;;;;33.01;28.33;99879.47;4474787;31;33304;-90
2023/07/23 11:26:01;;;;;;;0.60;0.60;;;;;;;33.11;27.31;99877.97;4466402;31;32480;-91
2023/07/23 11:28:32;;;;;;;0.50;0.50;;;;;;;32.91;27.58;99879.87;4474718;31;33736;-90
2023/07/23 11:31:00;;;;;;;1.08;1.00;;;;;;;33.49;26.89;99860.06;4478006;31;34096;-90
2023/07/23 11:33:30;;;;;;;0.40;0.40;;;;;;;33.55;27.84;99864.66;4466059;31;33642;-90
2023/07/23 11:36:01;;;;;;;1.15;0.35;;;;;;;33.76;26.80;99853.44;4468079;31;33075;-91
2023/07/23 11:38:32;;;;;;;0.85;0.47;;;;;;;33.58;27.56;99869.72;4491475;31;32490;-90
2023/07/23 11:41:01;;;;;;;0.77;0.60;;;;;;;33.26;28.17;99858.59;4488973;31;33573;-91
2023/07/23 11:43:32;;;;;;;0.40;0.40;;;;;;;33.45;26.58;99850.59;4477496;31;34456;-91